Řízení letového provozu České republiky
Letiste: LKLN Aktualizace: 20.01.2019 11:26:07  UTC
 METAR LKLN 20.01. 11:30 ...
METAR LKLN 201130Z AUTO VRB02KT 9999 OVC021 M02/M04 Q1016=